sensor_id;sensor_type;location;lat;lon;timestamp;temperature;humidity
284;DHT22;125;52.516;13.426;2022-07-23T00:01:47;18.40;1.00
284;DHT22;125;52.516;13.426;2022-07-23T00:04:13;18.30;1.00
284;DHT22;125;52.516;13.426;2022-07-23T00:06:40;18.30;1.00
284;DHT22;125;52.516;13.426;2022-07-23T00:09:08;18.30;1.00
284;DHT22;125;52.516;13.426;2022-07-23T00:11:34;18.20;1.00
284;DHT22;125;52.516;13.426;2022-07-23T00:14:01;18.20;1.00
284;DHT22;125;52.516;13.426;2022-07-23T00:16:27;18.10;1.00
284;DHT22;125;52.516;13.426;2022-07-23T00:18:54;18.20;1.00
284;DHT22;125;52.516;13.426;2022-07-23T00:21:21;18.20;1.00
284;DHT22;125;52.516;13.426;2022-07-23T00:23:47;18.40;1.00
284;DHT22;125;52.516;13.426;2022-07-23T00:26:15;18.20;1.00
284;DHT22;125;52.516;13.426;2022-07-23T00:28:42;18.40;1.00
284;DHT22;125;52.516;13.426;2022-07-23T00:31:08;18.40;1.00
284;DHT22;125;52.516;13.426;2022-07-23T00:33:35;18.50;1.00
284;DHT22;125;52.516;13.426;2022-07-23T00:36:02;18.50;1.00
284;DHT22;125;52.516;13.426;2022-07-23T00:38:29;18.20;1.00
284;DHT22;125;52.516;13.426;2022-07-23T00:40:55;18.30;1.00
284;DHT22;125;52.516;13.426;2022-07-23T00:43:23;18.40;1.00
284;DHT22;125;52.516;13.426;2022-07-23T00:45:50;18.30;1.00
284;DHT22;125;52.516;13.426;2022-07-23T00:48:16;18.30;1.00
284;DHT22;125;52.516;13.426;2022-07-23T00:50:43;18.30;1.00
284;DHT22;125;52.516;13.426;2022-07-23T00:53:10;18.30;1.00
284;DHT22;125;52.516;13.426;2022-07-23T00:55:38;18.40;1.00
284;DHT22;125;52.516;13.426;2022-07-23T00:58:05;18.20;1.00
284;DHT22;125;52.516;13.426;2022-07-23T01:00:33;18.20;1.00
284;DHT22;125;52.516;13.426;2022-07-23T01:03:00;18.20;1.00
284;DHT22;125;52.516;13.426;2022-07-23T01:05:26;18.10;1.00
284;DHT22;125;52.516;13.426;2022-07-23T01:07:53;18.20;1.00
284;DHT22;125;52.516;13.426;2022-07-23T01:10:20;18.10;1.00
284;DHT22;125;52.516;13.426;2022-07-23T01:13:01;18.10;1.00
284;DHT22;125;52.516;13.426;2022-07-23T01:15:28;17.90;1.00
284;DHT22;125;52.516;13.426;2022-07-23T01:17:56;18.00;1.00
284;DHT22;125;52.516;13.426;2022-07-23T01:20:23;18.00;1.00
284;DHT22;125;52.516;13.426;2022-07-23T01:22:51;17.60;1.00
284;DHT22;125;52.516;13.426;2022-07-23T01:25:18;17.80;1.00
284;DHT22;125;52.516;13.426;2022-07-23T01:27:44;17.80;1.00
284;DHT22;125;52.516;13.426;2022-07-23T01:30:12;17.70;1.00
284;DHT22;125;52.516;13.426;2022-07-23T01:32:39;17.70;1.00
284;DHT22;125;52.516;13.426;2022-07-23T01:35:07;17.70;1.00
284;DHT22;125;52.516;13.426;2022-07-23T01:37:34;17.60;1.00
284;DHT22;125;52.516;13.426;2022-07-23T01:40:02;18.30;1.00
284;DHT22;125;52.516;13.426;2022-07-23T01:42:29;17.60;1.00
284;DHT22;125;52.516;13.426;2022-07-23T01:44:56;17.50;1.00
284;DHT22;125;52.516;13.426;2022-07-23T01:47:23;17.40;1.00
284;DHT22;125;52.516;13.426;2022-07-23T01:49:49;17.30;1.00
284;DHT22;125;52.516;13.426;2022-07-23T01:52:16;17.40;1.00
284;DHT22;125;52.516;13.426;2022-07-23T01:54:43;17.50;1.00
284;DHT22;125;52.516;13.426;2022-07-23T01:57:11;17.30;1.00
284;DHT22;125;52.516;13.426;2022-07-23T01:59:37;17.30;1.00
284;DHT22;125;52.516;13.426;2022-07-23T02:02:04;17.50;1.00
284;DHT22;125;52.516;13.426;2022-07-23T02:04:31;17.40;1.00
284;DHT22;125;52.516;13.426;2022-07-23T02:07:00;17.40;1.00
284;DHT22;125;52.516;13.426;2022-07-23T02:09:27;17.50;1.00
284;DHT22;125;52.516;13.426;2022-07-23T02:11:53;17.50;1.00
284;DHT22;125;52.516;13.426;2022-07-23T02:14:21;17.50;1.00
284;DHT22;125;52.516;13.426;2022-07-23T02:16:48;17.40;1.00
284;DHT22;125;52.516;13.426;2022-07-23T02:19:14;17.60;1.00
284;DHT22;125;52.516;13.426;2022-07-23T02:21:41;17.30;1.00
284;DHT22;125;52.516;13.426;2022-07-23T02:24:08;17.40;1.00
284;DHT22;125;52.516;13.426;2022-07-23T02:26:35;17.50;1.00
284;DHT22;125;52.516;13.426;2022-07-23T02:29:03;17.40;1.00
284;DHT22;125;52.516;13.426;2022-07-23T02:31:31;17.30;1.00
284;DHT22;125;52.516;13.426;2022-07-23T02:33:58;17.30;1.00
284;DHT22;125;52.516;13.426;2022-07-23T02:36:25;17.30;1.00
284;DHT22;125;52.516;13.426;2022-07-23T02:38:52;17.30;1.00
284;DHT22;125;52.516;13.426;2022-07-23T02:41:19;17.20;1.00
284;DHT22;125;52.516;13.426;2022-07-23T02:43:45;17.30;1.00
284;DHT22;125;52.516;13.426;2022-07-23T02:46:12;17.50;1.00
284;DHT22;125;52.516;13.426;2022-07-23T02:48:40;17.30;1.00
284;DHT22;125;52.516;13.426;2022-07-23T02:51:06;17.20;1.00
284;DHT22;125;52.516;13.426;2022-07-23T02:53:33;17.00;1.00
284;DHT22;125;52.516;13.426;2022-07-23T02:55:59;16.90;1.00
284;DHT22;125;52.516;13.426;2022-07-23T02:58:26;17.00;1.00
284;DHT22;125;52.516;13.426;2022-07-23T03:00:53;17.10;1.00
284;DHT22;125;52.516;13.426;2022-07-23T03:03:19;16.80;1.00
284;DHT22;125;52.516;13.426;2022-07-23T03:05:47;16.80;1.00
284;DHT22;125;52.516;13.426;2022-07-23T03:08:14;16.80;1.00
284;DHT22;125;52.516;13.426;2022-07-23T03:10:41;16.80;1.00
284;DHT22;125;52.516;13.426;2022-07-23T03:13:07;16.80;1.00
284;DHT22;125;52.516;13.426;2022-07-23T03:15:34;16.80;1.00
284;DHT22;125;52.516;13.426;2022-07-23T03:18:00;16.80;1.00
284;DHT22;125;52.516;13.426;2022-07-23T03:20:27;16.50;1.00
284;DHT22;125;52.516;13.426;2022-07-23T03:22:55;16.60;1.00
284;DHT22;125;52.516;13.426;2022-07-23T03:25:22;16.50;1.00
284;DHT22;125;52.516;13.426;2022-07-23T03:27:49;16.50;1.00
284;DHT22;125;52.516;13.426;2022-07-23T03:30:15;16.50;1.00
284;DHT22;125;52.516;13.426;2022-07-23T03:32:42;16.50;1.00
284;DHT22;125;52.516;13.426;2022-07-23T03:35:08;16.60;1.00
284;DHT22;125;52.516;13.426;2022-07-23T03:37:35;16.60;1.00
284;DHT22;125;52.516;13.426;2022-07-23T03:40:04;16.50;1.00
284;DHT22;125;52.516;13.426;2022-07-23T03:42:31;16.50;1.00
284;DHT22;125;52.516;13.426;2022-07-23T03:44:58;16.90;1.00
284;DHT22;125;52.516;13.426;2022-07-23T03:47:24;17.40;1.00
284;DHT22;125;52.516;13.426;2022-07-23T03:49:51;16.70;1.00
284;DHT22;125;52.516;13.426;2022-07-23T03:52:17;16.60;1.00
284;DHT22;125;52.516;13.426;2022-07-23T03:54:44;16.70;1.00
284;DHT22;125;52.516;13.426;2022-07-23T03:57:12;16.80;1.00
284;DHT22;125;52.516;13.426;2022-07-23T03:59:38;15.90;1.00
284;DHT22;125;52.516;13.426;2022-07-23T04:02:05;16.60;1.00
284;DHT22;125;52.516;13.426;2022-07-23T04:04:32;16.60;1.00
284;DHT22;125;52.516;13.426;2022-07-23T04:06:58;16.70;1.00
284;DHT22;125;52.516;13.426;2022-07-23T04:09:26;16.90;1.00
284;DHT22;125;52.516;13.426;2022-07-23T04:11:53;16.80;1.00
284;DHT22;125;52.516;13.426;2022-07-23T04:14:21;16.70;1.00
284;DHT22;125;52.516;13.426;2022-07-23T04:16:47;16.80;1.00
284;DHT22;125;52.516;13.426;2022-07-23T04:19:14;16.70;1.00
284;DHT22;125;52.516;13.426;2022-07-23T04:21:40;16.50;1.00
284;DHT22;125;52.516;13.426;2022-07-23T04:24:07;16.60;1.00
284;DHT22;125;52.516;13.426;2022-07-23T04:26:34;16.40;1.00
284;DHT22;125;52.516;13.426;2022-07-23T04:29:00;16.50;1.00
284;DHT22;125;52.516;13.426;2022-07-23T04:31:28;16.80;1.00
284;DHT22;125;52.516;13.426;2022-07-23T04:33:55;16.70;1.00
284;DHT22;125;52.516;13.426;2022-07-23T04:36:21;16.70;1.00
284;DHT22;125;52.516;13.426;2022-07-23T04:38:48;16.50;1.00
284;DHT22;125;52.516;13.426;2022-07-23T04:41:14;16.60;1.00
284;DHT22;125;52.516;13.426;2022-07-23T04:43:41;16.40;1.00
284;DHT22;125;52.516;13.426;2022-07-23T04:46:07;16.30;1.00
284;DHT22;125;52.516;13.426;2022-07-23T04:48:40;16.20;1.00
284;DHT22;125;52.516;13.426;2022-07-23T04:51:07;16.70;1.00
284;DHT22;125;52.516;13.426;2022-07-23T04:53:34;16.30;1.00
284;DHT22;125;52.516;13.426;2022-07-23T04:56:06;16.30;1.00
284;DHT22;125;52.516;13.426;2022-07-23T04:58:33;16.30;1.00
284;DHT22;125;52.516;13.426;2022-07-23T05:00:59;16.10;1.00
284;DHT22;125;52.516;13.426;2022-07-23T05:03:26;15.90;1.00
284;DHT22;125;52.516;13.426;2022-07-23T05:05:54;16.00;1.00
284;DHT22;125;52.516;13.426;2022-07-23T05:08:21;15.90;1.00
284;DHT22;125;52.516;13.426;2022-07-23T05:10:48;15.90;1.00
284;DHT22;125;52.516;13.426;2022-07-23T05:13:15;15.60;1.00
284;DHT22;125;52.516;13.426;2022-07-23T05:15:41;15.50;1.00
284;DHT22;125;52.516;13.426;2022-07-23T05:18:08;15.50;1.00
284;DHT22;125;52.516;13.426;2022-07-23T05:20:35;15.40;1.00
284;DHT22;125;52.516;13.426;2022-07-23T05:23:03;15.40;1.00
284;DHT22;125;52.516;13.426;2022-07-23T05:25:30;15.50;1.00
284;DHT22;125;52.516;13.426;2022-07-23T05:27:56;15.60;1.00
284;DHT22;125;52.516;13.426;2022-07-23T05:30:23;15.70;1.00
284;DHT22;125;52.516;13.426;2022-07-23T05:32:49;15.60;1.00
284;DHT22;125;52.516;13.426;2022-07-23T05:35:16;15.60;1.00
284;DHT22;125;52.516;13.426;2022-07-23T05:37:43;15.90;1.00
284;DHT22;125;52.516;13.426;2022-07-23T05:40:12;15.70;1.00
284;DHT22;125;52.516;13.426;2022-07-23T05:42:39;15.70;1.00
284;DHT22;125;52.516;13.426;2022-07-23T05:45:08;15.70;1.00
284;DHT22;125;52.516;13.426;2022-07-23T05:47:42;16.20;1.00
284;DHT22;125;52.516;13.426;2022-07-23T05:50:09;16.30;1.00
284;DHT22;125;52.516;13.426;2022-07-23T05:52:36;16.20;1.00
284;DHT22;125;52.516;13.426;2022-07-23T05:55:04;16.30;1.00
284;DHT22;125;52.516;13.426;2022-07-23T05:57:32;15.80;1.00
284;DHT22;125;52.516;13.426;2022-07-23T05:59:59;15.90;1.00
284;DHT22;125;52.516;13.426;2022-07-23T06:02:25;16.10;1.00
284;DHT22;125;52.516;13.426;2022-07-23T06:04:52;16.20;1.00
284;DHT22;125;52.516;13.426;2022-07-23T06:07:18;16.40;1.00
284;DHT22;125;52.516;13.426;2022-07-23T06:09:45;16.30;1.00
284;DHT22;125;52.516;13.426;2022-07-23T06:12:12;16.30;1.00
284;DHT22;125;52.516;13.426;2022-07-23T06:14:40;16.10;1.00
284;DHT22;125;52.516;13.426;2022-07-23T06:17:08;16.00;1.00
284;DHT22;125;52.516;13.426;2022-07-23T06:19:34;15.90;1.00
284;DHT22;125;52.516;13.426;2022-07-23T06:22:01;16.00;1.00
284;DHT22;125;52.516;13.426;2022-07-23T06:24:28;15.90;1.00
284;DHT22;125;52.516;13.426;2022-07-23T06:26:54;16.10;1.00
284;DHT22;125;52.516;13.426;2022-07-23T06:29:21;16.20;1.00
284;DHT22;125;52.516;13.426;2022-07-23T06:31:49;16.40;1.00
284;DHT22;125;52.516;13.426;2022-07-23T06:34:15;16.40;1.00
284;DHT22;125;52.516;13.426;2022-07-23T06:36:42;16.40;1.00
284;DHT22;125;52.516;13.426;2022-07-23T06:39:08;16.40;1.00
284;DHT22;125;52.516;13.426;2022-07-23T06:41:35;16.30;1.00
284;DHT22;125;52.516;13.426;2022-07-23T06:44:02;16.10;1.00
284;DHT22;125;52.516;13.426;2022-07-23T06:46:28;16.00;1.00
284;DHT22;125;52.516;13.426;2022-07-23T06:48:56;16.10;1.00
284;DHT22;125;52.516;13.426;2022-07-23T06:51:23;16.40;1.00
284;DHT22;125;52.516;13.426;2022-07-23T06:53:49;16.20;1.00
284;DHT22;125;52.516;13.426;2022-07-23T06:56:16;16.20;1.00
284;DHT22;125;52.516;13.426;2022-07-23T06:58:42;16.40;1.00
284;DHT22;125;52.516;13.426;2022-07-23T07:01:09;16.50;1.00
284;DHT22;125;52.516;13.426;2022-07-23T07:03:36;16.50;1.00
284;DHT22;125;52.516;13.426;2022-07-23T07:06:04;16.70;1.00
284;DHT22;125;52.516;13.426;2022-07-23T07:08:30;16.90;1.00
284;DHT22;125;52.516;13.426;2022-07-23T07:10:57;16.90;1.00
284;DHT22;125;52.516;13.426;2022-07-23T07:13:23;16.80;1.00
284;DHT22;125;52.516;13.426;2022-07-23T07:15:50;16.80;1.00
284;DHT22;125;52.516;13.426;2022-07-23T07:18:17;16.90;1.00
284;DHT22;125;52.516;13.426;2022-07-23T07:20:43;17.00;1.00
284;DHT22;125;52.516;13.426;2022-07-23T07:23:12;17.30;1.00
284;DHT22;125;52.516;13.426;2022-07-23T07:25:38;17.70;1.00
284;DHT22;125;52.516;13.426;2022-07-23T07:28:05;18.00;1.00
284;DHT22;125;52.516;13.426;2022-07-23T07:30:31;18.00;1.00
284;DHT22;125;52.516;13.426;2022-07-23T07:32:58;18.00;1.00
284;DHT22;125;52.516;13.426;2022-07-23T07:35:25;17.90;1.00
284;DHT22;125;52.516;13.426;2022-07-23T07:37:52;18.10;1.00
284;DHT22;125;52.516;13.426;2022-07-23T07:40:20;18.10;1.00
284;DHT22;125;52.516;13.426;2022-07-23T07:42:47;17.90;1.00
284;DHT22;125;52.516;13.426;2022-07-23T07:45:14;18.30;1.00
284;DHT22;125;52.516;13.426;2022-07-23T07:47:41;18.50;1.00
284;DHT22;125;52.516;13.426;2022-07-23T07:50:08;18.50;1.00
284;DHT22;125;52.516;13.426;2022-07-23T07:52:35;18.80;1.00
284;DHT22;125;52.516;13.426;2022-07-23T07:55:02;18.70;1.00
284;DHT22;125;52.516;13.426;2022-07-23T07:57:30;18.30;1.00
284;DHT22;125;52.516;13.426;2022-07-23T07:59:57;18.10;1.00
284;DHT22;125;52.516;13.426;2022-07-23T08:02:24;18.20;1.00
284;DHT22;125;52.516;13.426;2022-07-23T08:04:50;18.70;1.00
284;DHT22;125;52.516;13.426;2022-07-23T08:07:17;18.90;1.00
284;DHT22;125;52.516;13.426;2022-07-23T08:09:44;18.60;1.00
284;DHT22;125;52.516;13.426;2022-07-23T08:12:12;18.20;1.00
284;DHT22;125;52.516;13.426;2022-07-23T08:14:40;18.00;1.00
284;DHT22;125;52.516;13.426;2022-07-23T08:17:07;18.70;1.00
284;DHT22;125;52.516;13.426;2022-07-23T08:19:33;19.10;1.00
284;DHT22;125;52.516;13.426;2022-07-23T08:22:00;19.40;1.00
284;DHT22;125;52.516;13.426;2022-07-23T08:24:27;19.20;1.00
284;DHT22;125;52.516;13.426;2022-07-23T08:26:53;18.80;1.00
284;DHT22;125;52.516;13.426;2022-07-23T08:29:20;19.10;1.00
284;DHT22;125;52.516;13.426;2022-07-23T08:31:48;19.40;1.00
284;DHT22;125;52.516;13.426;2022-07-23T08:34:15;19.20;1.00
284;DHT22;125;52.516;13.426;2022-07-23T08:36:41;19.00;1.00
284;DHT22;125;52.516;13.426;2022-07-23T08:39:08;18.70;1.00
284;DHT22;125;52.516;13.426;2022-07-23T08:41:34;18.60;1.00
284;DHT22;125;52.516;13.426;2022-07-23T08:44:02;19.40;1.00
284;DHT22;125;52.516;13.426;2022-07-23T08:46:28;20.10;1.00
284;DHT22;125;52.516;13.426;2022-07-23T08:48:57;19.60;1.00
284;DHT22;125;52.516;13.426;2022-07-23T08:51:27;19.60;1.00
284;DHT22;125;52.516;13.426;2022-07-23T08:53:56;20.20;1.00
284;DHT22;125;52.516;13.426;2022-07-23T08:56:23;20.40;1.00
284;DHT22;125;52.516;13.426;2022-07-23T08:58:50;19.80;1.00
284;DHT22;125;52.516;13.426;2022-07-23T09:01:16;20.20;1.00
284;DHT22;125;52.516;13.426;2022-07-23T09:03:43;19.60;1.00
284;DHT22;125;52.516;13.426;2022-07-23T09:06:11;19.30;1.00
284;DHT22;125;52.516;13.426;2022-07-23T09:08:39;19.90;1.00
284;DHT22;125;52.516;13.426;2022-07-23T09:11:07;19.90;1.00
284;DHT22;125;52.516;13.426;2022-07-23T09:13:37;19.50;1.00
284;DHT22;125;52.516;13.426;2022-07-23T09:16:07;19.70;1.00
284;DHT22;125;52.516;13.426;2022-07-23T09:18:39;20.10;1.00
284;DHT22;125;52.516;13.426;2022-07-23T09:21:24;20.00;1.00
284;DHT22;125;52.516;13.426;2022-07-23T09:23:55;21.30;1.00
284;DHT22;125;52.516;13.426;2022-07-23T09:26:33;20.80;1.00
284;DHT22;125;52.516;13.426;2022-07-23T09:29:05;20.80;1.00
284;DHT22;125;52.516;13.426;2022-07-23T09:31:44;20.80;1.00
284;DHT22;125;52.516;13.426;2022-07-23T09:34:13;20.60;1.00
284;DHT22;125;52.516;13.426;2022-07-23T09:36:42;19.80;1.00
284;DHT22;125;52.516;13.426;2022-07-23T09:39:09;19.80;1.00
284;DHT22;125;52.516;13.426;2022-07-23T09:41:38;20.10;1.00
284;DHT22;125;52.516;13.426;2022-07-23T09:44:10;20.30;1.00
284;DHT22;125;52.516;13.426;2022-07-23T09:46:38;20.40;1.00
284;DHT22;125;52.516;13.426;2022-07-23T09:49:20;20.50;1.00
284;DHT22;125;52.516;13.426;2022-07-23T09:51:51;21.30;1.00
284;DHT22;125;52.516;13.426;2022-07-23T09:54:24;21.70;1.00
284;DHT22;125;52.516;13.426;2022-07-23T09:56:52;21.80;1.00
284;DHT22;125;52.516;13.426;2022-07-23T09:59:22;21.80;1.00
284;DHT22;125;52.516;13.426;2022-07-23T10:01:50;21.80;1.00
284;DHT22;125;52.516;13.426;2022-07-23T10:04:18;21.30;1.00
284;DHT22;125;52.516;13.426;2022-07-23T10:06:45;21.10;1.00
284;DHT22;125;52.516;13.426;2022-07-23T10:09:16;21.90;1.00
284;DHT22;125;52.516;13.426;2022-07-23T10:11:49;22.40;1.00
284;DHT22;125;52.516;13.426;2022-07-23T10:14:17;22.20;1.00
284;DHT22;125;52.516;13.426;2022-07-23T10:16:44;22.30;1.00
284;DHT22;125;52.516;13.426;2022-07-23T10:19:11;22.80;1.00
284;DHT22;125;52.516;13.426;2022-07-23T10:21:41;22.50;1.00
284;DHT22;125;52.516;13.426;2022-07-23T10:24:20;22.10;1.00
284;DHT22;125;52.516;13.426;2022-07-23T10:26:58;22.50;1.00
284;DHT22;125;52.516;13.426;2022-07-23T10:29:37;21.90;1.00
284;DHT22;125;52.516;13.426;2022-07-23T10:32:16;21.80;1.00
284;DHT22;125;52.516;13.426;2022-07-23T10:34:47;21.60;1.00
284;DHT22;125;52.516;13.426;2022-07-23T10:37:22;21.50;1.00
284;DHT22;125;52.516;13.426;2022-07-23T10:40:08;21.70;1.00
284;DHT22;125;52.516;13.426;2022-07-23T10:42:36;21.80;1.00
284;DHT22;125;52.516;13.426;2022-07-23T10:45:22;21.40;1.00
284;DHT22;125;52.516;13.426;2022-07-23T10:47:50;21.80;1.00
284;DHT22;125;52.516;13.426;2022-07-23T10:50:22;21.80;1.00
284;DHT22;125;52.516;13.426;2022-07-23T10:53:09;21.60;1.00
284;DHT22;125;52.516;13.426;2022-07-23T10:55:47;21.40;1.00
284;DHT22;125;52.516;13.426;2022-07-23T10:58:18;21.90;1.00
284;DHT22;125;52.516;13.426;2022-07-23T11:00:45;22.40;1.00
284;DHT22;125;52.516;13.426;2022-07-23T11:03:29;22.50;1.00
284;DHT22;125;52.516;13.426;2022-07-23T11:05:57;22.40;1.00
284;DHT22;125;52.516;13.426;2022-07-23T11:08:24;22.80;1.00
284;DHT22;125;52.516;13.426;2022-07-23T11:10:55;23.00;1.00
284;DHT22;125;52.516;13.426;2022-07-23T11:13:39;22.70;1.00
284;DHT22;125;52.516;13.426;2022-07-23T11:16:10;23.40;1.00
284;DHT22;125;52.516;13.426;2022-07-23T11:21:41;23.60;1.00
284;DHT22;125;52.516;13.426;2022-07-23T11:24:10;23.60;1.00
284;DHT22;125;52.516;13.426;2022-07-23T11:26:50;23.70;1.00
284;DHT22;125;52.516;13.426;2022-07-23T11:29:37;23.80;1.00
284;DHT22;125;52.516;13.426;2022-07-23T11:32:06;24.30;1.00
284;DHT22;125;52.516;13.426;2022-07-23T11:34:33;23.90;1.00
284;DHT22;125;52.516;13.426;2022-07-23T11:37:03;24.30;1.00
284;DHT22;125;52.516;13.426;2022-07-23T11:39:30;24.20;1.00
284;DHT22;125;52.516;13.426;2022-07-23T11:42:00;24.00;1.00
284;DHT22;125;52.516;13.426;2022-07-23T11:44:28;24.40;1.00
284;DHT22;125;52.516;13.426;2022-07-23T11:46:55;24.50;1.00
284;DHT22;125;52.516;13.426;2022-07-23T11:49:23;24.30;1.00
284;DHT22;125;52.516;13.426;2022-07-23T11:52:02;23.90;1.00
284;DHT22;125;52.516;13.426;2022-07-23T11:54:30;23.70;1.00
284;DHT22;125;52.516;13.426;2022-07-23T11:56:58;23.80;1.00
284;DHT22;125;52.516;13.426;2022-07-23T11:59:26;24.00;1.00
284;DHT22;125;52.516;13.426;2022-07-23T12:01:57;24.10;1.00
284;DHT22;125;52.516;13.426;2022-07-23T12:04:24;23.10;1.00
284;DHT22;125;52.516;13.426;2022-07-23T12:06:51;23.70;1.00
284;DHT22;125;52.516;13.426;2022-07-23T12:09:18;24.30;1.00
284;DHT22;125;52.516;13.426;2022-07-23T12:11:58;24.30;1.00
284;DHT22;125;52.516;13.426;2022-07-23T12:14:24;24.60;1.00
284;DHT22;125;52.516;13.426;2022-07-23T12:17:06;24.60;1.00
284;DHT22;125;52.516;13.426;2022-07-23T12:19:33;24.70;1.00
284;DHT22;125;52.516;13.426;2022-07-23T12:22:00;24.20;1.00
284;DHT22;125;52.516;13.426;2022-07-23T12:24:26;24.20;1.00
284;DHT22;125;52.516;13.426;2022-07-23T12:27:09;23.90;1.00
284;DHT22;125;52.516;13.426;2022-07-23T12:29:37;24.40;1.00
284;DHT22;125;52.516;13.426;2022-07-23T12:32:17;24.00;1.00
284;DHT22;125;52.516;13.426;2022-07-23T12:34:44;23.80;1.00
284;DHT22;125;52.516;13.426;2022-07-23T12:37:26;23.80;1.00
284;DHT22;125;52.516;13.426;2022-07-23T12:39:52;24.20;1.00
284;DHT22;125;52.516;13.426;2022-07-23T12:42:20;23.80;1.00
284;DHT22;125;52.516;13.426;2022-07-23T12:45:04;23.90;1.00
284;DHT22;125;52.516;13.426;2022-07-23T12:47:50;23.90;1.00
284;DHT22;125;52.516;13.426;2022-07-23T12:50:40;24.00;1.00
284;DHT22;125;52.516;13.426;2022-07-23T12:53:10;24.80;1.00
284;DHT22;125;52.516;13.426;2022-07-23T12:55:38;25.00;1.00
284;DHT22;125;52.516;13.426;2022-07-23T12:58:09;24.60;1.00
284;DHT22;125;52.516;13.426;2022-07-23T13:00:55;24.30;1.00
284;DHT22;125;52.516;13.426;2022-07-23T13:03:23;24.60;1.00
284;DHT22;125;52.516;13.426;2022-07-23T13:05:51;24.40;1.00
284;DHT22;125;52.516;13.426;2022-07-23T13:08:18;23.80;1.00
284;DHT22;125;52.516;13.426;2022-07-23T13:10:44;23.60;1.00
284;DHT22;125;52.516;13.426;2022-07-23T13:13:15;23.70;1.00
284;DHT22;125;52.516;13.426;2022-07-23T13:15:42;23.70;1.00
284;DHT22;125;52.516;13.426;2022-07-23T13:18:09;23.60;1.00
284;DHT22;125;52.516;13.426;2022-07-23T13:20:35;23.40;1.00
284;DHT22;125;52.516;13.426;2022-07-23T13:23:04;23.50;1.00
284;DHT22;125;52.516;13.426;2022-07-23T13:25:30;23.50;1.00
284;DHT22;125;52.516;13.426;2022-07-23T13:27:57;23.60;1.00
284;DHT22;125;52.516;13.426;2022-07-23T13:30:25;24.00;1.00
284;DHT22;125;52.516;13.426;2022-07-23T13:32:51;24.00;1.00
284;DHT22;125;52.516;13.426;2022-07-23T13:35:18;24.20;1.00
284;DHT22;125;52.516;13.426;2022-07-23T13:37:46;24.70;1.00
284;DHT22;125;52.516;13.426;2022-07-23T13:40:13;25.00;1.00
284;DHT22;125;52.516;13.426;2022-07-23T13:42:40;25.00;1.00
284;DHT22;125;52.516;13.426;2022-07-23T13:45:07;25.00;1.00
284;DHT22;125;52.516;13.426;2022-07-23T13:47:35;24.90;1.00
284;DHT22;125;52.516;13.426;2022-07-23T13:50:03;24.90;1.00
284;DHT22;125;52.516;13.426;2022-07-23T13:52:29;24.90;1.00
284;DHT22;125;52.516;13.426;2022-07-23T13:54:58;24.50;1.00
284;DHT22;125;52.516;13.426;2022-07-23T13:57:25;24.30;1.00
284;DHT22;125;52.516;13.426;2022-07-23T13:59:51;24.10;1.00
284;DHT22;125;52.516;13.426;2022-07-23T14:02:18;24.20;1.00
284;DHT22;125;52.516;13.426;2022-07-23T14:04:46;24.10;1.00
284;DHT22;125;52.516;13.426;2022-07-23T14:07:12;23.90;1.00
284;DHT22;125;52.516;13.426;2022-07-23T14:09:39;23.90;1.00
284;DHT22;125;52.516;13.426;2022-07-23T14:12:06;24.30;1.00
284;DHT22;125;52.516;13.426;2022-07-23T14:14:33;24.40;1.00
284;DHT22;125;52.516;13.426;2022-07-23T14:17:00;24.30;1.00
284;DHT22;125;52.516;13.426;2022-07-23T14:19:27;24.40;1.00
284;DHT22;125;52.516;13.426;2022-07-23T14:21:55;24.30;1.00
284;DHT22;125;52.516;13.426;2022-07-23T14:24:21;24.60;1.00
284;DHT22;125;52.516;13.426;2022-07-23T14:26:48;25.10;1.00
284;DHT22;125;52.516;13.426;2022-07-23T14:29:14;25.20;1.00
284;DHT22;125;52.516;13.426;2022-07-23T14:31:41;24.90;1.00
284;DHT22;125;52.516;13.426;2022-07-23T14:34:08;24.60;1.00
284;DHT22;125;52.516;13.426;2022-07-23T14:36:34;24.50;1.00
284;DHT22;125;52.516;13.426;2022-07-23T14:39:02;24.40;1.00
284;DHT22;125;52.516;13.426;2022-07-23T14:41:29;24.70;1.00
284;DHT22;125;52.516;13.426;2022-07-23T14:43:56;24.70;1.00
284;DHT22;125;52.516;13.426;2022-07-23T14:46:23;24.70;1.00
284;DHT22;125;52.516;13.426;2022-07-23T14:48:49;24.20;1.00
284;DHT22;125;52.516;13.426;2022-07-23T14:51:16;24.30;1.00
284;DHT22;125;52.516;13.426;2022-07-23T14:53:42;24.40;1.00
284;DHT22;125;52.516;13.426;2022-07-23T14:56:10;24.30;1.00
284;DHT22;125;52.516;13.426;2022-07-23T14:58:38;24.10;1.00
284;DHT22;125;52.516;13.426;2022-07-23T15:01:05;23.90;1.00
284;DHT22;125;52.516;13.426;2022-07-23T15:03:32;23.70;1.00
284;DHT22;125;52.516;13.426;2022-07-23T15:05:59;23.70;1.00
284;DHT22;125;52.516;13.426;2022-07-23T15:08:25;23.50;1.00
284;DHT22;125;52.516;13.426;2022-07-23T15:10:52;23.60;1.00
284;DHT22;125;52.516;13.426;2022-07-23T15:13:20;23.80;1.00
284;DHT22;125;52.516;13.426;2022-07-23T15:15:47;24.10;1.00
284;DHT22;125;52.516;13.426;2022-07-23T15:18:14;24.30;1.00
284;DHT22;125;52.516;13.426;2022-07-23T15:20:40;24.50;1.00
284;DHT22;125;52.516;13.426;2022-07-23T15:23:07;24.40;1.00
284;DHT22;125;52.516;13.426;2022-07-23T15:25:34;24.20;1.00
284;DHT22;125;52.516;13.426;2022-07-23T15:28:01;24.00;1.00
284;DHT22;125;52.516;13.426;2022-07-23T15:30:29;23.80;1.00
284;DHT22;125;52.516;13.426;2022-07-23T15:32:56;23.90;1.00
284;DHT22;125;52.516;13.426;2022-07-23T15:35:23;23.80;1.00
284;DHT22;125;52.516;13.426;2022-07-23T15:37:53;23.80;1.00
284;DHT22;125;52.516;13.426;2022-07-23T15:40:19;23.70;1.00
284;DHT22;125;52.516;13.426;2022-07-23T15:42:46;23.60;1.00
284;DHT22;125;52.516;13.426;2022-07-23T15:45:12;23.80;1.00
284;DHT22;125;52.516;13.426;2022-07-23T15:47:41;23.70;1.00
284;DHT22;125;52.516;13.426;2022-07-23T15:50:08;24.00;1.00
284;DHT22;125;52.516;13.426;2022-07-23T15:52:35;24.00;1.00
284;DHT22;125;52.516;13.426;2022-07-23T15:55:02;24.30;1.00
284;DHT22;125;52.516;13.426;2022-07-23T15:57:29;24.40;1.00
284;DHT22;125;52.516;13.426;2022-07-23T15:59:56;24.20;1.00
284;DHT22;125;52.516;13.426;2022-07-23T16:02:22;23.90;1.00
284;DHT22;125;52.516;13.426;2022-07-23T16:04:51;23.70;1.00
284;DHT22;125;52.516;13.426;2022-07-23T16:07:19;23.60;1.00
284;DHT22;125;52.516;13.426;2022-07-23T16:09:46;23.60;1.00
284;DHT22;125;52.516;13.426;2022-07-23T16:12:12;23.40;1.00
284;DHT22;125;52.516;13.426;2022-07-23T16:14:40;23.40;1.00
284;DHT22;125;52.516;13.426;2022-07-23T16:17:06;23.30;1.00
284;DHT22;125;52.516;13.426;2022-07-23T16:19:33;23.50;1.00
284;DHT22;125;52.516;13.426;2022-07-23T16:22:01;23.60;1.00
284;DHT22;125;52.516;13.426;2022-07-23T16:24:28;23.50;1.00
284;DHT22;125;52.516;13.426;2022-07-23T16:26:54;23.60;1.00
284;DHT22;125;52.516;13.426;2022-07-23T16:29:21;23.30;1.00
284;DHT22;125;52.516;13.426;2022-07-23T16:31:48;23.50;1.00
284;DHT22;125;52.516;13.426;2022-07-23T16:34:14;23.30;1.00
284;DHT22;125;52.516;13.426;2022-07-23T16:36:41;23.40;1.00
284;DHT22;125;52.516;13.426;2022-07-23T16:39:09;23.50;1.00
284;DHT22;125;52.516;13.426;2022-07-23T16:41:35;23.30;1.00
284;DHT22;125;52.516;13.426;2022-07-23T16:44:03;23.40;1.00